sensor_id;sensor_type;location;lat;lon;timestamp;pressure;altitude;pressure_sealevel;temperature;humidity
59650;BME280;46162;57.568;25.814;2023-07-08T00:00:23;101154.66;;;12.18;100.00
59650;BME280;46162;57.568;25.814;2023-07-08T00:02:54;101154.53;;;12.19;100.00
59650;BME280;46162;57.568;25.814;2023-07-08T00:05:24;101146.41;;;12.19;100.00
59650;BME280;46162;57.568;25.814;2023-07-08T00:07:53;101149.50;;;12.24;100.00
59650;BME280;46162;57.568;25.814;2023-07-08T00:10:24;101138.50;;;12.26;100.00
59650;BME280;46162;57.568;25.814;2023-07-08T00:12:54;101139.16;;;12.38;100.00
59650;BME280;46162;57.568;25.814;2023-07-08T00:15:25;101127.63;;;12.36;100.00
59650;BME280;46162;57.568;25.814;2023-07-08T00:17:56;101130.03;;;12.39;100.00
59650;BME280;46162;57.568;25.814;2023-07-08T00:20:35;101133.13;;;12.44;100.00
59650;BME280;46162;57.568;25.814;2023-07-08T00:23:05;101125.00;;;12.44;100.00
59650;BME280;46162;57.568;25.814;2023-07-08T00:25:34;101125.16;;;12.42;100.00
59650;BME280;46162;57.568;25.814;2023-07-08T00:28:07;101125.84;;;12.44;100.00
59650;BME280;46162;57.568;25.814;2023-07-08T00:30:36;101120.97;;;12.48;100.00
59650;BME280;46162;57.568;25.814;2023-07-08T00:33:07;101117.56;;;12.46;100.00
59650;BME280;46162;57.568;25.814;2023-07-08T00:35:37;101113.22;;;12.53;100.00
59650;BME280;46162;57.568;25.814;2023-07-08T00:38:12;101114.41;;;12.51;100.00
59650;BME280;46162;57.568;25.814;2023-07-08T00:40:50;101115.94;;;12.53;100.00
59650;BME280;46162;57.568;25.814;2023-07-08T00:43:31;101114.31;;;12.60;100.00
59650;BME280;46162;57.568;25.814;2023-07-08T00:46:12;101114.00;;;12.63;100.00
59650;BME280;46162;57.568;25.814;2023-07-08T00:48:47;101113.34;;;12.61;100.00
59650;BME280;46162;57.568;25.814;2023-07-08T00:51:18;101118.06;;;12.59;100.00
59650;BME280;46162;57.568;25.814;2023-07-08T00:53:49;101116.13;;;12.52;100.00
59650;BME280;46162;57.568;25.814;2023-07-08T00:56:20;101115.56;;;12.48;100.00
59650;BME280;46162;57.568;25.814;2023-07-08T00:58:55;101111.84;;;12.49;100.00
59650;BME280;46162;57.568;25.814;2023-07-08T01:01:26;101098.31;;;12.49;100.00
59650;BME280;46162;57.568;25.814;2023-07-08T01:03:57;101102.19;;;12.46;100.00
59650;BME280;46162;57.568;25.814;2023-07-08T01:06:30;101102.34;;;12.45;100.00
59650;BME280;46162;57.568;25.814;2023-07-08T01:09:02;101102.72;;;12.50;100.00
59650;BME280;46162;57.568;25.814;2023-07-08T01:11:32;101096.38;;;12.59;100.00
59650;BME280;46162;57.568;25.814;2023-07-08T01:14:03;101088.47;;;12.48;100.00
59650;BME280;46162;57.568;25.814;2023-07-08T01:16:33;101087.69;;;12.56;100.00
59650;BME280;46162;57.568;25.814;2023-07-08T01:19:04;101086.53;;;12.58;100.00
59650;BME280;46162;57.568;25.814;2023-07-08T01:21:38;101082.06;;;12.67;100.00
59650;BME280;46162;57.568;25.814;2023-07-08T01:24:09;101081.91;;;12.51;100.00
59650;BME280;46162;57.568;25.814;2023-07-08T01:26:41;101072.72;;;12.61;100.00
59650;BME280;46162;57.568;25.814;2023-07-08T01:29:11;101075.03;;;12.56;100.00
59650;BME280;46162;57.568;25.814;2023-07-08T01:31:40;101069.06;;;12.53;100.00
59650;BME280;46162;57.568;25.814;2023-07-08T01:34:16;101073.00;;;12.58;100.00
59650;BME280;46162;57.568;25.814;2023-07-08T01:36:48;101066.91;;;12.56;100.00
59650;BME280;46162;57.568;25.814;2023-07-08T01:39:21;101070.69;;;12.45;100.00
59650;BME280;46162;57.568;25.814;2023-07-08T01:41:51;101065.13;;;12.47;100.00
59650;BME280;46162;57.568;25.814;2023-07-08T01:44:22;101064.41;;;12.45;100.00
59650;BME280;46162;57.568;25.814;2023-07-08T01:46:52;101062.88;;;12.42;100.00
59650;BME280;46162;57.568;25.814;2023-07-08T01:49:22;101059.16;;;12.43;100.00
59650;BME280;46162;57.568;25.814;2023-07-08T01:51:52;101059.06;;;12.53;100.00
59650;BME280;46162;57.568;25.814;2023-07-08T01:54:22;101053.66;;;12.53;100.00
59650;BME280;46162;57.568;25.814;2023-07-08T01:56:54;101054.13;;;12.48;100.00
59650;BME280;46162;57.568;25.814;2023-07-08T01:59:24;101056.69;;;12.50;100.00
59650;BME280;46162;57.568;25.814;2023-07-08T02:01:53;101057.97;;;12.46;100.00
59650;BME280;46162;57.568;25.814;2023-07-08T02:04:23;101050.56;;;12.48;100.00
59650;BME280;46162;57.568;25.814;2023-07-08T02:06:53;101053.13;;;12.50;100.00
59650;BME280;46162;57.568;25.814;2023-07-08T02:09:23;101041.44;;;12.49;100.00
59650;BME280;46162;57.568;25.814;2023-07-08T02:11:52;101035.00;;;12.50;100.00
59650;BME280;46162;57.568;25.814;2023-07-08T02:14:21;101036.88;;;12.50;100.00
59650;BME280;46162;57.568;25.814;2023-07-08T02:16:50;101020.31;;;12.53;100.00
59650;BME280;46162;57.568;25.814;2023-07-08T02:19:19;101026.56;;;12.53;100.00
59650;BME280;46162;57.568;25.814;2023-07-08T02:21:49;101016.28;;;12.57;100.00
59650;BME280;46162;57.568;25.814;2023-07-08T02:24:19;101017.13;;;12.57;100.00
59650;BME280;46162;57.568;25.814;2023-07-08T02:26:50;101010.22;;;12.63;100.00
59650;BME280;46162;57.568;25.814;2023-07-08T02:29:19;101009.38;;;12.62;100.00
59650;BME280;46162;57.568;25.814;2023-07-08T02:31:48;101005.88;;;12.70;100.00
59650;BME280;46162;57.568;25.814;2023-07-08T02:34:16;101005.56;;;12.73;100.00
59650;BME280;46162;57.568;25.814;2023-07-08T02:36:45;101008.50;;;12.80;100.00
59650;BME280;46162;57.568;25.814;2023-07-08T02:39:14;101002.75;;;12.83;100.00
59650;BME280;46162;57.568;25.814;2023-07-08T02:41:42;101008.16;;;12.83;100.00
59650;BME280;46162;57.568;25.814;2023-07-08T02:44:12;101000.91;;;12.83;100.00
59650;BME280;46162;57.568;25.814;2023-07-08T02:46:41;101008.50;;;12.80;100.00
59650;BME280;46162;57.568;25.814;2023-07-08T02:49:09;101007.47;;;12.81;100.00
59650;BME280;46162;57.568;25.814;2023-07-08T02:51:38;101008.88;;;12.85;100.00
59650;BME280;46162;57.568;25.814;2023-07-08T02:54:07;101012.59;;;12.84;100.00
59650;BME280;46162;57.568;25.814;2023-07-08T02:56:35;101006.34;;;12.83;100.00
59650;BME280;46162;57.568;25.814;2023-07-08T02:59:04;101008.53;;;12.88;100.00
59650;BME280;46162;57.568;25.814;2023-07-08T03:01:35;101007.88;;;12.86;100.00
59650;BME280;46162;57.568;25.814;2023-07-08T03:04:09;101013.13;;;12.87;100.00
59650;BME280;46162;57.568;25.814;2023-07-08T03:06:40;101010.63;;;12.94;100.00
59650;BME280;46162;57.568;25.814;2023-07-08T03:09:10;101007.44;;;12.99;100.00
59650;BME280;46162;57.568;25.814;2023-07-08T03:11:40;101011.50;;;13.03;100.00
59650;BME280;46162;57.568;25.814;2023-07-08T03:14:09;101007.50;;;13.07;100.00
59650;BME280;46162;57.568;25.814;2023-07-08T03:16:39;100999.22;;;13.08;100.00
59650;BME280;46162;57.568;25.814;2023-07-08T03:19:10;101011.88;;;13.08;100.00
59650;BME280;46162;57.568;25.814;2023-07-08T03:21:42;101001.91;;;13.08;100.00
59650;BME280;46162;57.568;25.814;2023-07-08T03:24:11;101001.03;;;13.08;100.00
59650;BME280;46162;57.568;25.814;2023-07-08T03:26:44;101006.63;;;13.06;100.00
59650;BME280;46162;57.568;25.814;2023-07-08T03:29:15;101003.94;;;13.06;100.00
59650;BME280;46162;57.568;25.814;2023-07-08T03:31:47;101007.16;;;13.10;100.00
59650;BME280;46162;57.568;25.814;2023-07-08T03:34:17;101000.56;;;13.12;100.00
59650;BME280;46162;57.568;25.814;2023-07-08T03:36:48;100986.84;;;13.14;100.00
59650;BME280;46162;57.568;25.814;2023-07-08T03:39:20;101002.66;;;13.19;100.00
59650;BME280;46162;57.568;25.814;2023-07-08T03:41:50;101003.00;;;13.24;100.00
59650;BME280;46162;57.568;25.814;2023-07-08T03:44:19;100999.00;;;13.28;100.00
59650;BME280;46162;57.568;25.814;2023-07-08T03:46:50;101007.81;;;13.30;100.00
59650;BME280;46162;57.568;25.814;2023-07-08T03:49:23;101007.50;;;13.33;100.00
59650;BME280;46162;57.568;25.814;2023-07-08T03:51:54;101004.59;;;13.34;100.00
59650;BME280;46162;57.568;25.814;2023-07-08T03:54:24;101004.13;;;13.39;100.00
59650;BME280;46162;57.568;25.814;2023-07-08T03:56:56;101008.22;;;13.43;100.00
59650;BME280;46162;57.568;25.814;2023-07-08T03:59:26;101002.47;;;13.46;100.00
59650;BME280;46162;57.568;25.814;2023-07-08T04:01:58;100999.59;;;13.48;100.00
59650;BME280;46162;57.568;25.814;2023-07-08T04:04:28;100998.44;;;13.50;100.00
59650;BME280;46162;57.568;25.814;2023-07-08T04:06:57;100996.72;;;13.49;100.00
59650;BME280;46162;57.568;25.814;2023-07-08T04:09:26;101002.69;;;13.53;100.00
59650;BME280;46162;57.568;25.814;2023-07-08T04:11:54;101001.97;;;13.51;100.00
59650;BME280;46162;57.568;25.814;2023-07-08T04:14:24;101003.53;;;13.53;100.00
59650;BME280;46162;57.568;25.814;2023-07-08T04:16:55;100998.44;;;13.59;100.00
59650;BME280;46162;57.568;25.814;2023-07-08T04:19:26;100996.56;;;13.59;100.00
59650;BME280;46162;57.568;25.814;2023-07-08T04:21:55;100995.75;;;13.59;100.00
59650;BME280;46162;57.568;25.814;2023-07-08T04:24:24;101000.81;;;13.62;100.00
59650;BME280;46162;57.568;25.814;2023-07-08T04:26:53;101003.53;;;13.62;100.00
59650;BME280;46162;57.568;25.814;2023-07-08T04:29:22;100992.34;;;13.65;100.00
59650;BME280;46162;57.568;25.814;2023-07-08T04:31:51;101000.88;;;13.70;100.00
59650;BME280;46162;57.568;25.814;2023-07-08T04:34:20;100997.34;;;13.77;100.00
59650;BME280;46162;57.568;25.814;2023-07-08T04:36:51;101000.91;;;13.78;100.00
59650;BME280;46162;57.568;25.814;2023-07-08T04:39:20;100993.44;;;13.80;100.00
59650;BME280;46162;57.568;25.814;2023-07-08T04:41:48;101002.63;;;13.87;100.00
59650;BME280;46162;57.568;25.814;2023-07-08T04:44:17;101005.00;;;13.90;100.00
59650;BME280;46162;57.568;25.814;2023-07-08T04:46:48;101008.06;;;13.95;100.00
59650;BME280;46162;57.568;25.814;2023-07-08T04:49:18;101013.50;;;13.95;100.00
59650;BME280;46162;57.568;25.814;2023-07-08T04:51:47;101006.72;;;14.00;100.00
59650;BME280;46162;57.568;25.814;2023-07-08T04:54:17;101009.09;;;14.03;100.00
59650;BME280;46162;57.568;25.814;2023-07-08T04:56:47;101013.84;;;14.09;100.00
59650;BME280;46162;57.568;25.814;2023-07-08T04:59:18;101017.44;;;14.17;100.00
59650;BME280;46162;57.568;25.814;2023-07-08T05:01:47;101004.84;;;14.16;100.00
59650;BME280;46162;57.568;25.814;2023-07-08T05:04:18;101008.44;;;14.25;100.00
59650;BME280;46162;57.568;25.814;2023-07-08T05:06:47;101015.25;;;14.29;100.00
59650;BME280;46162;57.568;25.814;2023-07-08T05:09:17;101004.69;;;14.26;100.00
59650;BME280;46162;57.568;25.814;2023-07-08T05:11:46;101004.56;;;14.19;100.00
59650;BME280;46162;57.568;25.814;2023-07-08T05:14:15;101006.72;;;14.24;100.00
59650;BME280;46162;57.568;25.814;2023-07-08T05:16:43;101008.63;;;14.40;100.00
59650;BME280;46162;57.568;25.814;2023-07-08T05:19:12;101010.50;;;14.39;100.00
59650;BME280;46162;57.568;25.814;2023-07-08T05:21:41;101010.31;;;14.33;100.00
59650;BME280;46162;57.568;25.814;2023-07-08T05:24:12;101007.94;;;14.30;100.00
59650;BME280;46162;57.568;25.814;2023-07-08T05:26:42;101001.69;;;14.29;100.00
59650;BME280;46162;57.568;25.814;2023-07-08T05:29:11;101001.81;;;14.36;100.00
59650;BME280;46162;57.568;25.814;2023-07-08T05:31:40;100998.94;;;14.46;100.00
59650;BME280;46162;57.568;25.814;2023-07-08T05:34:15;101009.53;;;14.57;100.00
59650;BME280;46162;57.568;25.814;2023-07-08T05:36:44;100997.13;;;14.62;100.00
59650;BME280;46162;57.568;25.814;2023-07-08T05:39:12;101006.47;;;14.60;100.00
59650;BME280;46162;57.568;25.814;2023-07-08T05:41:42;100997.94;;;14.79;100.00
59650;BME280;46162;57.568;25.814;2023-07-08T05:44:11;101000.97;;;14.93;100.00
59650;BME280;46162;57.568;25.814;2023-07-08T05:46:40;100997.41;;;14.92;100.00
59650;BME280;46162;57.568;25.814;2023-07-08T05:49:08;100999.44;;;14.98;100.00
59650;BME280;46162;57.568;25.814;2023-07-08T05:51:37;100998.75;;;15.04;100.00
59650;BME280;46162;57.568;25.814;2023-07-08T05:54:06;100999.06;;;15.10;100.00
59650;BME280;46162;57.568;25.814;2023-07-08T05:56:35;100991.41;;;15.13;100.00
59650;BME280;46162;57.568;25.814;2023-07-08T05:59:05;100997.19;;;15.18;100.00
59650;BME280;46162;57.568;25.814;2023-07-08T06:01:34;100985.63;;;15.16;100.00
59650;BME280;46162;57.568;25.814;2023-07-08T06:04:03;100982.53;;;15.27;100.00
59650;BME280;46162;57.568;25.814;2023-07-08T06:06:32;100981.63;;;15.43;100.00
59650;BME280;46162;57.568;25.814;2023-07-08T06:09:01;100982.44;;;15.52;100.00
59650;BME280;46162;57.568;25.814;2023-07-08T06:11:31;100981.22;;;15.63;100.00
59650;BME280;46162;57.568;25.814;2023-07-08T06:13:59;100980.69;;;15.59;100.00
59650;BME280;46162;57.568;25.814;2023-07-08T06:16:30;100982.53;;;15.67;100.00
59650;BME280;46162;57.568;25.814;2023-07-08T06:19:07;100988.50;;;15.62;100.00
59650;BME280;46162;57.568;25.814;2023-07-08T06:21:36;100985.25;;;15.67;100.00
59650;BME280;46162;57.568;25.814;2023-07-08T06:24:05;100981.69;;;15.66;100.00
59650;BME280;46162;57.568;25.814;2023-07-08T06:26:34;100979.00;;;15.58;100.00
59650;BME280;46162;57.568;25.814;2023-07-08T06:29:04;100979.34;;;15.55;100.00
59650;BME280;46162;57.568;25.814;2023-07-08T06:31:34;100978.88;;;15.52;100.00
59650;BME280;46162;57.568;25.814;2023-07-08T06:34:03;100969.81;;;15.59;100.00
59650;BME280;46162;57.568;25.814;2023-07-08T06:36:32;100977.78;;;16.00;100.00
59650;BME280;46162;57.568;25.814;2023-07-08T06:39:00;100973.31;;;16.07;100.00
59650;BME280;46162;57.568;25.814;2023-07-08T06:41:30;100974.56;;;15.97;100.00
59650;BME280;46162;57.568;25.814;2023-07-08T06:43:58;100977.47;;;15.95;100.00
59650;BME280;46162;57.568;25.814;2023-07-08T06:46:30;100976.38;;;16.04;100.00
59650;BME280;46162;57.568;25.814;2023-07-08T06:49:01;100967.63;;;16.17;100.00
59650;BME280;46162;57.568;25.814;2023-07-08T06:51:29;100970.75;;;16.29;100.00
59650;BME280;46162;57.568;25.814;2023-07-08T06:53:58;100966.81;;;16.54;100.00
59650;BME280;46162;57.568;25.814;2023-07-08T06:56:27;100969.03;;;16.51;100.00
59650;BME280;46162;57.568;25.814;2023-07-08T06:58:55;100973.34;;;16.45;100.00
59650;BME280;46162;57.568;25.814;2023-07-08T07:01:24;100967.81;;;16.53;100.00
59650;BME280;46162;57.568;25.814;2023-07-08T07:03:53;100958.22;;;16.81;100.00
59650;BME280;46162;57.568;25.814;2023-07-08T07:06:23;100965.19;;;16.98;100.00
59650;BME280;46162;57.568;25.814;2023-07-08T07:08:52;100958.06;;;16.97;100.00
59650;BME280;46162;57.568;25.814;2023-07-08T07:11:21;100952.50;;;16.90;100.00
59650;BME280;46162;57.568;25.814;2023-07-08T07:13:50;100958.34;;;17.17;100.00
59650;BME280;46162;57.568;25.814;2023-07-08T07:16:18;100956.34;;;17.26;100.00
59650;BME280;46162;57.568;25.814;2023-07-08T07:18:47;100963.03;;;17.38;100.00
59650;BME280;46162;57.568;25.814;2023-07-08T07:21:17;100960.56;;;17.28;100.00
59650;BME280;46162;57.568;25.814;2023-07-08T07:23:47;100965.47;;;17.18;100.00
59650;BME280;46162;57.568;25.814;2023-07-08T07:26:16;100968.41;;;17.16;100.00
59650;BME280;46162;57.568;25.814;2023-07-08T07:28:45;100967.19;;;17.19;100.00
59650;BME280;46162;57.568;25.814;2023-07-08T07:31:13;100969.53;;;17.37;100.00
59650;BME280;46162;57.568;25.814;2023-07-08T07:33:42;100960.28;;;17.38;100.00
59650;BME280;46162;57.568;25.814;2023-07-08T07:36:11;100967.59;;;17.67;100.00
59650;BME280;46162;57.568;25.814;2023-07-08T07:38:39;100967.50;;;17.60;100.00
59650;BME280;46162;57.568;25.814;2023-07-08T07:41:09;100969.59;;;17.58;100.00
59650;BME280;46162;57.568;25.814;2023-07-08T07:43:39;100969.72;;;17.35;100.00
59650;BME280;46162;57.568;25.814;2023-07-08T07:46:08;100970.91;;;17.48;100.00
59650;BME280;46162;57.568;25.814;2023-07-08T07:48:38;100978.03;;;17.78;100.00
59650;BME280;46162;57.568;25.814;2023-07-08T07:51:06;100977.00;;;18.16;100.00
59650;BME280;46162;57.568;25.814;2023-07-08T07:53:38;100980.81;;;18.21;100.00
59650;BME280;46162;57.568;25.814;2023-07-08T07:56:06;100973.34;;;18.09;100.00
59650;BME280;46162;57.568;25.814;2023-07-08T07:58:37;100968.44;;;17.82;100.00
59650;BME280;46162;57.568;25.814;2023-07-08T08:01:05;100972.91;;;17.54;100.00
59650;BME280;46162;57.568;25.814;2023-07-08T08:03:34;100963.31;;;17.28;100.00
59650;BME280;46162;57.568;25.814;2023-07-08T08:06:03;100971.59;;;17.20;100.00
59650;BME280;46162;57.568;25.814;2023-07-08T08:08:32;100974.22;;;17.13;100.00
59650;BME280;46162;57.568;25.814;2023-07-08T08:11:04;100974.53;;;17.33;100.00
59650;BME280;46162;57.568;25.814;2023-07-08T08:13:33;100967.84;;;17.36;100.00
59650;BME280;46162;57.568;25.814;2023-07-08T08:16:04;100961.72;;;17.49;100.00
59650;BME280;46162;57.568;25.814;2023-07-08T08:18:32;100978.78;;;17.72;100.00
59650;BME280;46162;57.568;25.814;2023-07-08T08:21:02;100971.78;;;18.21;100.00
59650;BME280;46162;57.568;25.814;2023-07-08T08:23:31;100985.06;;;18.45;100.00
59650;BME280;46162;57.568;25.814;2023-07-08T08:25:59;100978.34;;;18.69;100.00
59650;BME280;46162;57.568;25.814;2023-07-08T08:28:28;100978.50;;;18.40;100.00
59650;BME280;46162;57.568;25.814;2023-07-08T08:30:57;100981.38;;;18.10;100.00
59650;BME280;46162;57.568;25.814;2023-07-08T08:33:27;100982.06;;;18.40;100.00
59650;BME280;46162;57.568;25.814;2023-07-08T08:35:56;100978.69;;;18.88;100.00
59650;BME280;46162;57.568;25.814;2023-07-08T08:38:25;100982.09;;;18.90;100.00
59650;BME280;46162;57.568;25.814;2023-07-08T08:40:54;100973.88;;;18.90;100.00
59650;BME280;46162;57.568;25.814;2023-07-08T08:43:28;100976.56;;;18.62;100.00
59650;BME280;46162;57.568;25.814;2023-07-08T08:46:04;100970.88;;;18.35;100.00
59650;BME280;46162;57.568;25.814;2023-07-08T09:01:30;100984.91;;;18.54;100.00
59650;BME280;46162;57.568;25.814;2023-07-08T09:04:03;100985.13;;;18.52;100.00
59650;BME280;46162;57.568;25.814;2023-07-08T09:06:34;100986.16;;;18.30;100.00
59650;BME280;46162;57.568;25.814;2023-07-08T09:09:13;100975.53;;;18.63;100.00
59650;BME280;46162;57.568;25.814;2023-07-08T09:11:49;100976.22;;;18.72;100.00
59650;BME280;46162;57.568;25.814;2023-07-08T09:14:24;100990.84;;;18.57;100.00
59650;BME280;46162;57.568;25.814;2023-07-08T09:17:00;100986.03;;;18.16;100.00
59650;BME280;46162;57.568;25.814;2023-07-08T09:19:40;100990.31;;;18.04;100.00
59650;BME280;46162;57.568;25.814;2023-07-08T09:22:14;100986.81;;;18.10;100.00
59650;BME280;46162;57.568;25.814;2023-07-08T09:24:46;100980.75;;;18.58;100.00
59650;BME280;46162;57.568;25.814;2023-07-08T09:27:17;100981.84;;;18.85;100.00
59650;BME280;46162;57.568;25.814;2023-07-08T09:29:46;100969.53;;;19.02;100.00
59650;BME280;46162;57.568;25.814;2023-07-08T09:32:19;100968.22;;;19.26;100.00
59650;BME280;46162;57.568;25.814;2023-07-08T09:34:50;100964.31;;;19.49;100.00
59650;BME280;46162;57.568;25.814;2023-07-08T09:37:25;100963.88;;;19.39;100.00
59650;BME280;46162;57.568;25.814;2023-07-08T09:39:56;100968.28;;;19.05;100.00
59650;BME280;46162;57.568;25.814;2023-07-08T09:42:28;100970.38;;;19.03;100.00
59650;BME280;46162;57.568;25.814;2023-07-08T09:44:59;100960.44;;;18.95;100.00
59650;BME280;46162;57.568;25.814;2023-07-08T09:47:36;100959.19;;;19.32;100.00
59650;BME280;46162;57.568;25.814;2023-07-08T09:50:18;100970.16;;;19.74;100.00
59650;BME280;46162;57.568;25.814;2023-07-08T09:52:47;100970.63;;;19.97;100.00
59650;BME280;46162;57.568;25.814;2023-07-08T09:55:16;100973.53;;;19.83;100.00
59650;BME280;46162;57.568;25.814;2023-07-08T09:57:47;100977.22;;;19.20;100.00
59650;BME280;46162;57.568;25.814;2023-07-08T10:00:19;100983.28;;;18.81;100.00
59650;BME280;46162;57.568;25.814;2023-07-08T10:02:54;100973.16;;;19.44;100.00
59650;BME280;46162;57.568;25.814;2023-07-08T10:05:27;100967.50;;;19.52;100.00
59650;BME280;46162;57.568;25.814;2023-07-08T10:07:58;100974.63;;;19.47;100.00
59650;BME280;46162;57.568;25.814;2023-07-08T10:10:30;100978.16;;;19.82;100.00
59650;BME280;46162;57.568;25.814;2023-07-08T10:13:02;100975.88;;;19.86;100.00
59650;BME280;46162;57.568;25.814;2023-07-08T10:15:37;100969.72;;;19.36;100.00
59650;BME280;46162;57.568;25.814;2023-07-08T10:18:13;100978.72;;;19.64;100.00
59650;BME280;46162;57.568;25.814;2023-07-08T10:20:50;100971.03;;;19.94;100.00
59650;BME280;46162;57.568;25.814;2023-07-08T10:23:27;100970.44;;;19.99;100.00
59650;BME280;46162;57.568;25.814;2023-07-08T10:26:10;100973.56;;;19.41;100.00
59650;BME280;46162;57.568;25.814;2023-07-08T10:28:45;100973.28;;;18.95;100.00
59650;BME280;46162;57.568;25.814;2023-07-08T10:31:21;100970.69;;;19.15;100.00
59650;BME280;46162;57.568;25.814;2023-07-08T10:34:10;100968.56;;;19.51;100.00
59650;BME280;46162;57.568;25.814;2023-07-08T10:36:50;100976.53;;;19.53;100.00
59650;BME280;46162;57.568;25.814;2023-07-08T10:39:39;100980.06;;;19.82;100.00
59650;BME280;46162;57.568;25.814;2023-07-08T10:42:14;100971.72;;;20.03;100.00
59650;BME280;46162;57.568;25.814;2023-07-08T10:44:54;100970.44;;;20.06;100.00
59650;BME280;46162;57.568;25.814;2023-07-08T10:47:35;100968.13;;;20.23;100.00
59650;BME280;46162;57.568;25.814;2023-07-08T10:50:24;100957.81;;;20.45;100.00
59650;BME280;46162;57.568;25.814;2023-07-08T10:53:16;100962.91;;;20.48;100.00
59650;BME280;46162;57.568;25.814;2023-07-08T10:55:51;100968.53;;;20.06;100.00
59650;BME280;46162;57.568;25.814;2023-07-08T10:58:40;100974.41;;;19.83;100.00
59650;BME280;46162;57.568;25.814;2023-07-08T11:01:19;100965.19;;;20.37;100.00
59650;BME280;46162;57.568;25.814;2023-07-08T11:04:12;100972.19;;;20.47;100.00
59650;BME280;46162;57.568;25.814;2023-07-08T11:06:49;100969.66;;;20.52;100.00
59650;BME280;46162;57.568;25.814;2023-07-08T11:09:24;100954.47;;;20.69;100.00
59650;BME280;46162;57.568;25.814;2023-07-08T11:11:58;100961.66;;;20.97;100.00
59650;BME280;46162;57.568;25.814;2023-07-08T11:14:30;100968.19;;;20.96;100.00
59650;BME280;46162;57.568;25.814;2023-07-08T11:17:09;100945.81;;;20.86;100.00
59650;BME280;46162;57.568;25.814;2023-07-08T11:19:46;100952.38;;;20.85;100.00
59650;BME280;46162;57.568;25.814;2023-07-08T11:22:19;100961.41;;;20.98;100.00
59650;BME280;46162;57.568;25.814;2023-07-08T11:24:51;100968.38;;;21.01;100.00
59650;BME280;46162;57.568;25.814;2023-07-08T11:27:25;100964.78;;;21.07;100.00
59650;BME280;46162;57.568;25.814;2023-07-08T11:29:57;100968.84;;;20.58;100.00
59650;BME280;46162;57.568;25.814;2023-07-08T11:32:30;100964.56;;;20.42;100.00
59650;BME280;46162;57.568;25.814;2023-07-08T11:35:02;100966.91;;;20.45;100.00
59650;BME280;46162;57.568;25.814;2023-07-08T11:37:34;100973.53;;;19.76;100.00
59650;BME280;46162;57.568;25.814;2023-07-08T11:40:07;100967.13;;;19.21;100.00
59650;BME280;46162;57.568;25.814;2023-07-08T11:42:39;100969.97;;;18.99;100.00
59650;BME280;46162;57.568;25.814;2023-07-08T11:45:24;100968.81;;;18.87;100.00
59650;BME280;46162;57.568;25.814;2023-07-08T11:48:04;100970.31;;;19.31;100.00
59650;BME280;46162;57.568;25.814;2023-07-08T11:50:37;100968.22;;;19.68;100.00
59650;BME280;46162;57.568;25.814;2023-07-08T11:53:09;100965.53;;;19.81;100.00
59650;BME280;46162;57.568;25.814;2023-07-08T11:55:43;100968.03;;;19.83;100.00
59650;BME280;46162;57.568;25.814;2023-07-08T11:58:21;100962.03;;;20.21;100.00
59650;BME280;46162;57.568;25.814;2023-07-08T12:00:58;100974.25;;;20.11;100.00
59650;BME280;46162;57.568;25.814;2023-07-08T12:03:34;100970.06;;;20.15;100.00
59650;BME280;46162;57.568;25.814;2023-07-08T12:06:43;100968.78;;;20.31;100.00
59650;BME280;46162;57.568;25.814;2023-07-08T12:09:19;100970.25;;;20.27;100.00
59650;BME280;46162;57.568;25.814;2023-07-08T12:11:55;100969.66;;;20.25;100.00
59650;BME280;46162;57.568;25.814;2023-07-08T12:14:27;100960.13;;;20.34;100.00
59650;BME280;46162;57.568;25.814;2023-07-08T12:16:57;100966.25;;;20.23;100.00
59650;BME280;46162;57.568;25.814;2023-07-08T12:19:28;100974.50;;;20.23;100.00
59650;BME280;46162;57.568;25.814;2023-07-08T12:22:02;100986.09;;;20.25;100.00
59650;BME280;46162;57.568;25.814;2023-07-08T12:24:33;100985.66;;;20.28;100.00
59650;BME280;46162;57.568;25.814;2023-07-08T12:27:04;100982.88;;;20.15;100.00
59650;BME280;46162;57.568;25.814;2023-07-08T12:29:33;100982.44;;;20.05;100.00
59650;BME280;46162;57.568;25.814;2023-07-08T12:32:03;100987.72;;;20.00;100.00
59650;BME280;46162;57.568;25.814;2023-07-08T12:34:32;100974.03;;;20.06;100.00
59650;BME280;46162;57.568;25.814;2023-07-08T12:37:01;100970.47;;;20.26;100.00
59650;BME280;46162;57.568;25.814;2023-07-08T12:39:34;100980.63;;;20.38;100.00
59650;BME280;46162;57.568;25.814;2023-07-08T12:42:09;100991.59;;;20.25;100.00
59650;BME280;46162;57.568;25.814;2023-07-08T12:44:39;100980.94;;;19.89;100.00
59650;BME280;46162;57.568;25.814;2023-07-08T12:47:11;100993.13;;;19.80;100.00
59650;BME280;46162;57.568;25.814;2023-07-08T12:49:40;101002.78;;;19.69;100.00
59650;BME280;46162;57.568;25.814;2023-07-08T12:52:20;100992.97;;;19.46;100.00
59650;BME280;46162;57.568;25.814;2023-07-08T12:54:51;100995.84;;;19.38;100.00
59650;BME280;46162;57.568;25.814;2023-07-08T12:57:20;100982.38;;;19.43;100.00
59650;BME280;46162;57.568;25.814;2023-07-08T12:59:48;100997.31;;;19.69;100.00
59650;BME280;46162;57.568;25.814;2023-07-08T13:02:19;100990.38;;;19.80;100.00
59650;BME280;46162;57.568;25.814;2023-07-08T13:04:52;100993.84;;;19.53;100.00